createdAt,value
2023-02-19T00:00:36.627Z,1010.8
2023-02-19T00:01:52.607Z,1010.9
2023-02-19T00:03:09.011Z,1010.9
2023-02-19T00:04:25.204Z,1010.9
2023-02-19T00:05:41.391Z,1011
2023-02-19T00:06:57.577Z,1010.9
2023-02-19T00:08:13.763Z,1010.9
2023-02-19T00:09:29.965Z,1011
2023-02-19T00:10:46.150Z,1011
2023-02-19T00:12:02.118Z,1010.9
2023-02-19T00:13:17.319Z,1010.9
2023-02-19T00:14:33.740Z,1011
2023-02-19T00:15:49.704Z,1011
2023-02-19T00:17:06.118Z,1011
2023-02-19T00:18:22.296Z,1011
2023-02-19T00:19:38.488Z,1011
2023-02-19T00:20:54.464Z,1011
2023-02-19T00:22:09.682Z,1011
2023-02-19T00:23:25.098Z,1010.9
2023-02-19T00:24:41.282Z,1010.9
2023-02-19T00:25:57.471Z,1010.9
2023-02-19T00:27:13.439Z,1010.9
2023-02-19T00:28:29.864Z,1010.9
2023-02-19T00:29:46.043Z,1010.8
2023-02-19T00:31:02.010Z,1010.9
2023-02-19T00:32:18.419Z,1010.8
2023-02-19T00:33:34.382Z,1010.9
2023-02-19T00:34:50.807Z,1010.8
2023-02-19T00:36:06.777Z,1010.8
2023-02-19T00:37:23.173Z,1010.7
2023-02-19T00:38:39.376Z,1010.8
2023-02-19T00:39:54.346Z,1010.7
2023-02-19T00:41:10.549Z,1010.7
2023-02-19T00:42:26.964Z,1010.6
2023-02-19T00:43:42.912Z,1010.6
2023-02-19T00:44:59.330Z,1010.7
2023-02-19T00:46:15.520Z,1010.7
2023-02-19T00:47:31.708Z,1010.7
2023-02-19T00:48:46.706Z,1010.7
2023-02-19T00:50:02.152Z,1010.7
2023-02-19T00:51:18.326Z,1010.7
2023-02-19T00:52:34.286Z,1010.7
2023-02-19T00:53:50.477Z,1010.7
2023-02-19T00:55:06.900Z,1010.7
2023-02-19T00:56:23.080Z,1010.8
2023-02-19T00:57:39.045Z,1010.8
2023-02-19T00:58:55.456Z,1010.8
2023-02-19T01:00:11.643Z,1010.7
2023-02-19T01:01:27.836Z,1010.7
2023-02-19T01:02:43.804Z,1010.7
2023-02-19T01:04:00.212Z,1010.7
2023-02-19T01:05:16.178Z,1010.6
2023-02-19T01:06:31.376Z,1010.6
2023-02-19T01:07:47.810Z,1010.6
2023-02-19T01:09:03.766Z,1010.6
2023-02-19T01:10:20.174Z,1010.6
2023-02-19T01:11:36.370Z,1010.6
2023-02-19T01:12:52.320Z,1010.5
2023-02-19T01:14:08.512Z,1010.5
2023-02-19T01:15:23.969Z,1010.5
2023-02-19T01:16:39.163Z,1010.5
2023-02-19T01:17:54.154Z,1010.5
2023-02-19T01:19:10.691Z,1010.4
2023-02-19T01:20:26.655Z,1010.5
2023-02-19T01:21:43.075Z,1010.4
2023-02-19T01:22:59.269Z,1010.4
2023-02-19T01:24:15.446Z,1010.4
2023-02-19T01:25:31.653Z,1010.4
2023-02-19T01:26:47.831Z,1010.4
2023-02-19T01:28:04.030Z,1010.3
2023-02-19T01:29:20.217Z,1010.2
2023-02-19T01:30:36.163Z,1010.1
2023-02-19T01:31:52.582Z,1010.1
2023-02-19T01:33:08.782Z,1010
2023-02-19T01:34:24.000Z,1010
2023-02-19T01:35:40.166Z,1010
2023-02-19T01:36:56.125Z,1009.9
2023-02-19T01:38:12.551Z,1009.8
2023-02-19T01:39:28.508Z,1009.9
2023-02-19T01:40:44.938Z,1009.9
2023-02-19T01:42:01.128Z,1010
2023-02-19T01:43:17.311Z,1010
2023-02-19T01:44:32.524Z,1010
2023-02-19T01:45:47.734Z,1010
2023-02-19T01:47:02.955Z,1010
2023-02-19T01:48:18.159Z,1010
2023-02-19T01:49:34.102Z,1010
2023-02-19T01:50:50.289Z,1009.9
2023-02-19T01:52:06.487Z,1009.9
2023-02-19T01:53:22.907Z,1010
2023-02-19T01:54:39.093Z,1009.9
2023-02-19T01:55:55.043Z,1009.9
2023-02-19T01:57:11.479Z,1009.9
2023-02-19T01:58:27.667Z,1009.8
2023-02-19T01:59:43.613Z,1009.8
2023-02-19T02:01:00.055Z,1009.9
2023-02-19T02:02:16.238Z,1009.8
2023-02-19T02:03:32.417Z,1009.8
2023-02-19T02:04:47.391Z,1009.8
2023-02-19T02:06:03.571Z,1009.7
2023-02-19T02:07:19.766Z,1009.7
2023-02-19T02:08:35.954Z,1009.7
2023-02-19T02:09:52.381Z,1009.7
2023-02-19T02:11:08.578Z,1009.7
2023-02-19T02:12:24.517Z,1009.7
2023-02-19T02:13:39.990Z,1009.6
2023-02-19T02:14:54.949Z,1009.7
2023-02-19T02:16:10.158Z,1009.6
2023-02-19T02:17:25.604Z,1009.6
2023-02-19T02:18:40.826Z,1009.6
2023-02-19T02:19:56.030Z,1009.6
2023-02-19T02:21:12.226Z,1009.7
2023-02-19T02:22:28.159Z,1009.7
2023-02-19T02:23:44.611Z,1009.7
2023-02-19T02:25:00.798Z,1009.7
2023-02-19T02:26:16.970Z,1009.7
2023-02-19T02:27:33.163Z,1009.6
2023-02-19T02:28:49.363Z,1009.6
2023-02-19T02:30:05.299Z,1009.7
2023-02-19T02:31:21.731Z,1009.8
2023-02-19T02:32:37.917Z,1009.7
2023-02-19T02:33:53.867Z,1009.8
2023-02-19T02:35:10.060Z,1009.8
2023-02-19T02:36:25.518Z,1009.8
2023-02-19T02:37:41.691Z,1009.8
2023-02-19T02:38:57.887Z,1009.7
2023-02-19T02:40:14.082Z,1009.7
2023-02-19T02:41:30.013Z,1009.7
2023-02-19T02:42:46.206Z,1009.6
2023-02-19T02:44:02.638Z,1009.6
2023-02-19T02:45:17.612Z,1009.6
2023-02-19T02:46:32.819Z,1009.6
2023-02-19T02:47:49.258Z,1009.6
2023-02-19T02:49:05.449Z,1009.6
2023-02-19T02:50:20.670Z,1009.6
2023-02-19T02:51:35.867Z,1009.6
2023-02-19T02:52:52.051Z,1009.6
2023-02-19T02:54:08.000Z,1009.6
2023-02-19T02:55:24.436Z,1009.6
2023-02-19T02:56:40.634Z,1009.5
2023-02-19T02:57:56.809Z,1009.6
2023-02-19T02:59:12.750Z,1009.6
2023-02-19T03:00:28.938Z,1009.6
2023-02-19T03:01:45.135Z,1009.6
2023-02-19T03:03:01.581Z,1009.6
2023-02-19T03:04:17.751Z,1009.6
2023-02-19T03:05:33.947Z,1009.7
2023-02-19T03:06:50.139Z,1009.8
2023-02-19T03:08:05.100Z,1009.7
2023-02-19T03:09:21.537Z,1009.7
2023-02-19T03:10:37.728Z,1009.7
2023-02-19T03:11:53.662Z,1009.8
2023-02-19T03:13:09.836Z,1009.7
2023-02-19T03:14:26.296Z,1009.8
2023-02-19T03:15:42.223Z,1009.8
2023-02-19T03:16:57.701Z,1009.8
2023-02-19T03:18:12.894Z,1009.8
2023-02-19T03:19:28.826Z,1009.8
2023-02-19T03:20:45.289Z,1009.8
2023-02-19T03:22:01.474Z,1009.8
2023-02-19T03:23:17.408Z,1009.8
2023-02-19T03:24:33.853Z,1009.8
2023-02-19T03:25:50.029Z,1009.9
2023-02-19T03:27:05.975Z,1009.9
2023-02-19T03:28:22.423Z,1009.9
2023-02-19T03:29:38.341Z,1009.9
2023-02-19T03:30:54.534Z,1009.9
2023-02-19T03:32:10.733Z,1010
2023-02-19T03:33:27.165Z,1010
2023-02-19T03:34:42.381Z,1010
2023-02-19T03:35:58.564Z,1010
2023-02-19T03:37:14.503Z,1010
2023-02-19T03:38:30.692Z,1010
2023-02-19T03:39:47.143Z,1010
2023-02-19T03:41:03.318Z,1010
2023-02-19T03:42:19.506Z,1010
2023-02-19T03:43:34.726Z,1010
2023-02-19T03:44:49.932Z,1010
2023-02-19T03:46:05.860Z,1010
2023-02-19T03:47:22.306Z,1010
2023-02-19T03:48:38.496Z,1010
2023-02-19T03:49:54.684Z,1010
2023-02-19T03:51:10.616Z,1010
2023-02-19T03:52:27.067Z,1010
2023-02-19T03:53:42.991Z,1010
2023-02-19T03:54:59.450Z,1010
2023-02-19T03:56:15.646Z,1010.1
2023-02-19T03:57:31.562Z,1010
2023-02-19T03:58:48.009Z,1010
2023-02-19T04:00:04.209Z,1010
2023-02-19T04:01:19.416Z,1010.1
2023-02-19T04:02:35.341Z,1010.2
2023-02-19T04:03:51.801Z,1010.1
2023-02-19T04:05:07.977Z,1010.2
2023-02-19T04:06:24.175Z,1010.2
2023-02-19T04:07:40.363Z,1010.1
2023-02-19T04:08:56.280Z,1010.1
2023-02-19T04:10:11.762Z,1010.2
2023-02-19T04:11:26.984Z,1010.2
2023-02-19T04:12:42.192Z,1010.2
2023-02-19T04:13:57.402Z,1010.3
2023-02-19T04:15:12.353Z,1010.2
2023-02-19T04:16:27.561Z,1010.3
2023-02-19T04:17:44.013Z,1010.3
2023-02-19T04:19:00.210Z,1010.3
2023-02-19T04:20:16.385Z,1010.3
2023-02-19T04:21:32.584Z,1010.3
2023-02-19T04:22:48.771Z,1010.3
2023-02-19T04:24:04.691Z,1010.3
2023-02-19T04:25:21.153Z,1010.3
2023-02-19T04:26:37.344Z,1010.4
2023-02-19T04:27:53.243Z,1010.4
2023-02-19T04:29:09.722Z,1010.4
2023-02-19T04:30:25.903Z,1010.4
2023-02-19T04:31:41.829Z,1010.4
2023-02-19T04:32:57.308Z,1010.4
2023-02-19T04:34:13.495Z,1010.4
2023-02-19T04:35:29.402Z,1010.4
2023-02-19T04:36:45.874Z,1010.5
2023-02-19T04:38:02.051Z,1010.4
2023-02-19T04:39:17.974Z,1010.5
2023-02-19T04:40:34.149Z,1010.5
2023-02-19T04:41:49.650Z,1010.5
2023-02-19T04:43:05.954Z,1010.5
2023-02-19T04:44:20.898Z,1010.5
2023-02-19T04:45:36.387Z,1010.5
2023-02-19T04:46:52.295Z,1010.5
2023-02-19T04:48:08.760Z,1010.5
2023-02-19T04:49:24.960Z,1010.5
2023-02-19T04:50:40.871Z,1010.5
2023-02-19T04:51:57.326Z,1010.5
2023-02-19T04:53:13.247Z,1010.6
2023-02-19T04:54:29.422Z,1010.6
2023-02-19T04:55:45.887Z,1010.5
2023-02-19T04:57:02.095Z,1010.5
2023-02-19T04:58:18.268Z,1010.6
2023-02-19T04:59:34.474Z,1010.5
2023-02-19T05:00:50.381Z,1010.6
2023-02-19T05:02:05.581Z,1010.6
2023-02-19T05:03:22.039Z,1010.6
2023-02-19T05:04:38.240Z,1010.6
2023-02-19T05:05:54.137Z,1010.6
2023-02-19T05:07:10.611Z,1010.6
2023-02-19T05:08:26.811Z,1010.7
2023-02-19T05:09:42.993Z,1010.7
2023-02-19T05:10:58.215Z,1010.7
2023-02-19T05:12:13.142Z,1010.7
2023-02-19T05:13:28.358Z,1010.7
2023-02-19T05:14:43.835Z,1010.7
2023-02-19T05:16:00.024Z,1010.7
2023-02-19T05:17:15.941Z,1010.7
2023-02-19T05:18:32.133Z,1010.7
2023-02-19T05:19:48.594Z,1010.7
2023-02-19T05:21:04.793Z,1010.7
2023-02-19T05:22:20.976Z,1010.7
2023-02-19T05:23:37.170Z,1010.7
2023-02-19T05:24:53.077Z,1010.7
2023-02-19T05:26:09.541Z,1010.7
2023-02-19T05:27:25.455Z,1010.7
2023-02-19T05:28:41.919Z,1010.6
2023-02-19T05:29:58.106Z,1010.6
2023-02-19T05:31:13.028Z,1010.7
2023-02-19T05:32:29.218Z,1010.6
2023-02-19T05:33:45.697Z,1010.7
2023-02-19T05:35:01.892Z,1010.7
2023-02-19T05:36:18.076Z,1010.7
2023-02-19T05:37:34.270Z,1010.8
2023-02-19T05:38:50.163Z,1010.7
2023-02-19T05:40:05.382Z,1010.7
2023-02-19T05:41:20.878Z,1010.7
2023-02-19T05:42:37.055Z,1010.8
2023-02-19T05:43:53.251Z,1010.8
2023-02-19T05:45:09.449Z,1010.8
2023-02-19T05:46:25.631Z,1010.7
2023-02-19T05:47:41.530Z,1010.8
2023-02-19T05:48:58.003Z,1010.8
2023-02-19T05:50:14.194Z,1010.8
2023-02-19T05:51:30.391Z,1010.8
2023-02-19T05:52:46.573Z,1010.8
2023-02-19T05:54:02.470Z,1010.8
2023-02-19T05:55:18.653Z,1010.8
2023-02-19T05:56:34.858Z,1010.8
2023-02-19T05:57:50.346Z,1010.8
2023-02-19T05:59:06.527Z,1010.9
2023-02-19T06:00:22.710Z,1010.9
2023-02-19T06:01:38.904Z,1010.9
2023-02-19T06:02:54.805Z,1010.9
2023-02-19T06:04:10.995Z,1010.9
2023-02-19T06:05:27.476Z,1010.9
2023-02-19T06:06:42.674Z,1011
2023-02-19T06:07:57.583Z,1011
2023-02-19T06:09:13.771Z,1011
2023-02-19T06:10:29.961Z,1010.9
2023-02-19T06:11:46.449Z,1010.9
2023-02-19T06:13:02.628Z,1011
2023-02-19T06:14:18.820Z,1010.9
2023-02-19T06:15:34.717Z,1010.8
2023-02-19T06:16:50.894Z,1010.9
2023-02-19T06:18:07.380Z,1010.9
2023-02-19T06:19:23.577Z,1010.9
2023-02-19T06:20:39.772Z,1010.9
2023-02-19T06:21:55.662Z,1010.9
2023-02-19T06:23:12.136Z,1010.9
2023-02-19T06:24:27.053Z,1010.9
2023-02-19T06:25:43.524Z,1011
2023-02-19T06:26:59.724Z,1011
2023-02-19T06:28:15.906Z,1011
2023-02-19T06:29:32.087Z,1010.9
2023-02-19T06:30:47.984Z,1010.9
2023-02-19T06:32:04.474Z,1011
2023-02-19T06:33:19.673Z,1011.1
2023-02-19T06:34:34.884Z,1011
2023-02-19T06:35:50.102Z,1011
2023-02-19T06:37:05.303Z,1011
2023-02-19T06:38:21.477Z,1011.1
2023-02-19T06:39:37.672Z,1011.1
2023-02-19T06:40:53.558Z,1011.2
2023-02-19T06:42:09.742Z,1011.2
2023-02-19T06:43:25.946Z,1011.2
2023-02-19T06:44:42.114Z,1011.3
2023-02-19T06:45:58.307Z,1011.3
2023-02-19T06:47:14.505Z,1011.3
2023-02-19T06:48:30.993Z,1011.3
2023-02-19T06:49:47.169Z,1011.3
2023-02-19T06:51:03.361Z,1011.4
2023-02-19T06:52:19.247Z,1011.4
2023-02-19T06:53:34.459Z,1011.5
2023-02-19T06:54:50.633Z,1011.5
2023-02-19T06:56:07.126Z,1011.5
2023-02-19T06:57:23.313Z,1011.5
2023-02-19T06:58:39.506Z,1011.7
2023-02-19T06:59:55.689Z,1011.7
2023-02-19T07:01:11.579Z,1011.7
2023-02-19T07:02:26.779Z,1011.7
2023-02-19T07:03:41.981Z,1011.7
2023-02-19T07:04:57.508Z,1011.6
2023-02-19T07:06:12.403Z,1011.7
2023-02-19T07:07:27.919Z,1011.7
2023-02-19T07:08:42.819Z,1011.7
2023-02-19T07:09:59.326Z,1011.7
2023-02-19T07:11:15.199Z,1011.8
2023-02-19T07:12:31.394Z,1011.8
2023-02-19T07:13:47.883Z,1011.8
2023-02-19T07:15:03.752Z,1011.8
2023-02-19T07:16:19.942Z,1011.8
2023-02-19T07:17:36.440Z,1011.8
2023-02-19T07:18:52.634Z,1011.9
2023-02-19T07:20:08.827Z,1011.8
2023-02-19T07:21:25.004Z,1011.8
2023-02-19T07:22:41.197Z,1011.9
2023-02-19T07:23:57.374Z,1011.8
2023-02-19T07:25:13.382Z,1011.8
2023-02-19T07:26:29.567Z,1011.9
2023-02-19T07:27:46.056Z,1011.9
2023-02-19T07:29:02.250Z,1011.9
2023-02-19T07:30:18.447Z,1011.9
2023-02-19T07:31:34.620Z,1012
2023-02-19T07:32:50.502Z,1012
2023-02-19T07:34:05.726Z,1012.1
2023-02-19T07:35:21.237Z,1012
2023-02-19T07:36:36.443Z,1012
2023-02-19T07:37:51.340Z,1012.1
2023-02-19T07:39:06.859Z,1012.1
2023-02-19T07:40:22.065Z,1012.1
2023-02-19T07:41:37.932Z,1012.1
2023-02-19T07:42:54.125Z,1012.2
2023-02-19T07:44:10.632Z,1012.2
2023-02-19T07:45:26.817Z,1012.2
2023-02-19T07:46:42.688Z,1012.2
2023-02-19T07:47:59.183Z,1012.3
2023-02-19T07:49:15.061Z,1012.3
2023-02-19T07:50:31.569Z,1012.3
2023-02-19T07:51:47.761Z,1012.3
2023-02-19T07:53:03.939Z,1012.4
2023-02-19T07:54:20.124Z,1012.3
2023-02-19T07:55:36.323Z,1012.3
2023-02-19T07:56:51.208Z,1012.3
2023-02-19T07:58:07.697Z,1012.5
2023-02-19T07:59:23.896Z,1012.4
2023-02-19T08:00:40.087Z,1012.5
2023-02-19T08:01:56.275Z,1012.6
2023-02-19T08:03:12.148Z,1012.6
2023-02-19T08:04:28.324Z,1012.6
2023-02-19T08:05:43.856Z,1012.5
2023-02-19T08:06:59.056Z,1012.6
2023-02-19T08:08:14.272Z,1012.7
2023-02-19T08:09:29.167Z,1012.7
2023-02-19T08:10:45.344Z,1012.7
2023-02-19T08:12:01.540Z,1012.8
2023-02-19T08:13:18.035Z,1012.7
2023-02-19T08:14:34.236Z,1012.8
2023-02-19T08:15:50.104Z,1012.9
2023-02-19T08:17:06.604Z,1013
2023-02-19T08:18:22.788Z,1013
2023-02-19T08:19:38.661Z,1013
2023-02-19T08:20:55.168Z,1013
2023-02-19T08:22:11.041Z,1013
2023-02-19T08:23:27.220Z,1013
2023-02-19T08:24:43.729Z,1013
2023-02-19T08:25:58.939Z,1013
2023-02-19T08:27:14.808Z,1013.1
2023-02-19T08:28:30.997Z,1013.2
2023-02-19T08:29:47.504Z,1013.2
2023-02-19T08:31:03.682Z,1013.2
2023-02-19T08:32:19.562Z,1013.3
2023-02-19T08:33:36.069Z,1013.3
2023-02-19T08:34:51.281Z,1013.3
2023-02-19T08:36:06.472Z,1013.4
2023-02-19T08:37:22.661Z,1013.3
2023-02-19T08:38:38.858Z,1013.4
2023-02-19T08:39:54.724Z,1013.4
2023-02-19T08:41:11.235Z,1013.4
2023-02-19T08:42:27.094Z,1013.4
2023-02-19T08:43:43.603Z,1013.4
2023-02-19T08:44:59.787Z,1013.5
2023-02-19T08:46:15.972Z,1013.6
2023-02-19T08:47:32.177Z,1013.6
2023-02-19T08:48:48.365Z,1013.6
2023-02-19T08:50:04.547Z,1013.6
2023-02-19T08:51:20.415Z,1013.6
2023-02-19T08:52:35.937Z,1013.5
2023-02-19T08:53:51.790Z,1013.6
2023-02-19T08:55:08.303Z,1013.6
2023-02-19T08:56:24.497Z,1013.7
2023-02-19T08:57:40.366Z,1013.6
2023-02-19T08:58:56.882Z,1013.7
2023-02-19T09:00:13.060Z,1013.7
2023-02-19T09:01:27.953Z,1013.7
2023-02-19T09:02:43.480Z,1013.7
2023-02-19T09:03:58.356Z,1013.8
2023-02-19T09:05:13.559Z,1013.9
2023-02-19T09:06:28.781Z,1013.8
2023-02-19T09:07:43.989Z,1013.9
2023-02-19T09:09:00.497Z,1013.9
2023-02-19T09:10:15.375Z,1013.9
2023-02-19T09:11:30.913Z,1013.9
2023-02-19T09:12:47.116Z,1013.9
2023-02-19T09:14:03.291Z,1014
2023-02-19T09:15:19.480Z,1013.9
2023-02-19T09:16:35.658Z,1014
2023-02-19T09:17:51.866Z,1013.9
2023-02-19T09:19:07.704Z,1014
2023-02-19T09:20:23.893Z,1014
2023-02-19T09:21:40.421Z,1014
2023-02-19T09:22:56.600Z,1014.1
2023-02-19T09:24:12.796Z,1014.1
2023-02-19T09:25:28.984Z,1014.1
2023-02-19T09:26:44.827Z,1014.1
2023-02-19T09:28:00.038Z,1014.2
2023-02-19T09:29:16.219Z,1014.2
2023-02-19T09:30:32.423Z,1014
2023-02-19T09:31:48.608Z,1014
2023-02-19T09:33:04.788Z,1014.1
2023-02-19T09:34:21.311Z,1014.1
2023-02-19T09:35:37.172Z,1014.1
2023-02-19T09:36:52.714Z,1014.2
2023-02-19T09:38:07.914Z,1014.1
2023-02-19T09:39:23.769Z,1014.1
2023-02-19T09:40:38.974Z,1014.1
2023-02-19T09:41:54.185Z,1014.2
2023-02-19T09:43:10.369Z,1014.2
2023-02-19T09:44:26.567Z,1014.2
2023-02-19T09:45:43.091Z,1014.2
2023-02-19T09:46:58.942Z,1014.1
2023-02-19T09:48:15.118Z,1014.2
2023-02-19T09:49:31.640Z,1014.2
2023-02-19T09:50:47.485Z,1014.2
2023-02-19T09:52:04.013Z,1014.2
2023-02-19T09:53:19.860Z,1014.4
2023-02-19T09:54:36.401Z,1014.3
2023-02-19T09:55:52.587Z,1014.3
2023-02-19T09:57:08.767Z,1014.4
2023-02-19T09:58:23.630Z,1014.4
2023-02-19T09:59:40.166Z,1014.4
2023-02-19T10:00:56.343Z,1014.5
2023-02-19T10:02:12.547Z,1014.5
2023-02-19T10:03:28.382Z,1014.5
2023-02-19T10:04:44.908Z,1014.5
2023-02-19T10:06:00.759Z,1014.5
2023-02-19T10:07:16.310Z,1014.6
2023-02-19T10:08:31.515Z,1014.5
2023-02-19T10:09:46.741Z,1014.6
2023-02-19T10:11:01.584Z,1014.6
2023-02-19T10:12:18.119Z,1014.6
2023-02-19T10:13:34.304Z,1014.6
2023-02-19T10:14:50.505Z,1014.6
2023-02-19T10:16:06.681Z,1014.7
2023-02-19T10:17:22.878Z,1014.6
2023-02-19T10:18:39.063Z,1014.7
2023-02-19T10:19:54.908Z,1014.7
2023-02-19T10:21:11.432Z,1014.8
2023-02-19T10:22:27.282Z,1014.8
2023-02-19T10:23:43.809Z,1014.9
2023-02-19T10:24:59.991Z,1014.8
2023-02-19T10:26:16.180Z,1014.8
2023-02-19T10:27:31.397Z,1014.9
2023-02-19T10:28:47.238Z,1014.9
2023-02-19T10:30:03.769Z,1015
2023-02-19T10:31:19.964Z,1015
2023-02-19T10:32:36.142Z,1015
2023-02-19T10:33:52.332Z,1015
2023-02-19T10:35:08.161Z,1015
2023-02-19T10:36:23.720Z,1015
2023-02-19T10:37:38.940Z,1015
2023-02-19T10:38:54.778Z,1015.1
2023-02-19T10:40:11.306Z,1015.1
2023-02-19T10:41:27.145Z,1015.1
2023-02-19T10:42:43.681Z,1015.1
2023-02-19T10:43:59.514Z,1015.1
2023-02-19T10:45:16.056Z,1015.1
2023-02-19T10:46:32.249Z,1015.1
2023-02-19T10:47:48.085Z,1015.2
2023-02-19T10:49:04.626Z,1015.1
2023-02-19T10:50:20.817Z,1015.3
2023-02-19T10:51:36.652Z,1015.2
2023-02-19T10:52:53.179Z,1015.2
2023-02-19T10:54:08.391Z,1015.2
2023-02-19T10:55:24.219Z,1015.3
2023-02-19T10:56:40.759Z,1015.4
2023-02-19T10:57:56.594Z,1015.4
2023-02-19T10:59:13.143Z,1015.4
2023-02-19T11:00:28.960Z,1015.4
2023-02-19T11:01:45.518Z,1015.4
2023-02-19T11:03:00.715Z,1015.4
2023-02-19T11:04:15.933Z,1015.4
2023-02-19T11:05:31.144Z,1015.6
2023-02-19T11:06:45.994Z,1015.4
2023-02-19T11:08:02.186Z,1015.4
2023-02-19T11:09:18.722Z,1015.4
2023-02-19T11:10:34.902Z,1015.5
2023-02-19T11:11:51.095Z,1015.5
2023-02-19T11:13:06.929Z,1015.5
2023-02-19T11:14:23.477Z,1015.5
2023-02-19T11:15:39.308Z,1015.5
2023-02-19T11:16:55.495Z,1015.6
2023-02-19T11:18:12.027Z,1015.6
2023-02-19T11:19:28.231Z,1015.6
2023-02-19T11:20:44.042Z,1015.7
2023-02-19T11:22:00.239Z,1015.6
2023-02-19T11:23:15.433Z,1015.6
2023-02-19T11:24:31.981Z,1015.5
2023-02-19T11:25:48.170Z,1015.7
2023-02-19T11:27:04.004Z,1015.7
2023-02-19T11:28:20.538Z,1015.7
2023-02-19T11:29:36.729Z,1015.7
2023-02-19T11:30:52.923Z,1015.7
2023-02-19T11:32:08.135Z,1015.8
2023-02-19T11:33:23.337Z,1015.8
2023-02-19T11:34:38.563Z,1015.7
2023-02-19T11:35:53.394Z,1015.7
2023-02-19T11:37:08.618Z,1015.7
2023-02-19T11:38:23.822Z,1015.7
2023-02-19T11:39:40.355Z,1015.8
2023-02-19T11:40:56.538Z,1015.8
2023-02-19T11:42:12.725Z,1015.7
2023-02-19T11:43:28.922Z,1015.8
2023-02-19T11:44:44.747Z,1015.8
2023-02-19T11:46:00.935Z,1015.8
2023-02-19T11:47:17.495Z,1015.9
2023-02-19T11:48:33.677Z,1016
2023-02-19T11:49:49.857Z,1015.9
2023-02-19T11:51:06.053Z,1015.9
2023-02-19T11:52:21.873Z,1015.8
2023-02-19T11:53:38.419Z,1015.8
2023-02-19T11:54:53.620Z,1015.8
2023-02-19T11:56:09.809Z,1015.8
2023-02-19T11:57:26.002Z,1015.8
2023-02-19T11:58:42.185Z,1015.8
2023-02-19T11:59:58.000Z,1015.7
2023-02-19T12:01:14.554Z,1015.8
2023-02-19T12:02:30.750Z,1015.8
2023-02-19T12:03:45.603Z,1015.7
2023-02-19T12:05:01.161Z,1015.8
2023-02-19T12:06:16.374Z,1015.7
2023-02-19T12:07:31.580Z,1015.7
2023-02-19T12:08:47.769Z,1015.7
2023-02-19T12:10:03.962Z,1015.8
2023-02-19T12:11:20.139Z,1015.8
2023-02-19T12:12:35.964Z,1015.8
2023-02-19T12:13:52.514Z,1015.9
2023-02-19T12:15:08.339Z,1015.9
2023-02-19T12:16:24.897Z,1015.9
2023-02-19T12:17:41.083Z,1016
2023-02-19T12:18:57.265Z,1016
2023-02-19T12:20:13.085Z,1016
2023-02-19T12:21:29.269Z,1016
2023-02-19T12:22:45.829Z,1016
2023-02-19T12:24:01.042Z,1016
2023-02-19T12:25:17.222Z,1016
2023-02-19T12:26:33.038Z,1016
2023-02-19T12:27:49.601Z,1015.9
2023-02-19T12:29:05.409Z,1015.9
2023-02-19T12:30:21.592Z,1016
2023-02-19T12:31:38.161Z,1016
2023-02-19T12:32:53.003Z,1016.1
2023-02-19T12:34:08.578Z,1016.1
2023-02-19T12:35:23.797Z,1016
2023-02-19T12:36:38.619Z,1016.1
2023-02-19T12:37:55.174Z,1016.1
2023-02-19T12:39:11.362Z,1016.1
2023-02-19T12:40:26.582Z,1016.1
2023-02-19T12:41:42.391Z,1016.1
2023-02-19T12:42:58.948Z,1016.2
2023-02-19T12:44:15.136Z,1016.2
2023-02-19T12:45:30.947Z,1016.2
2023-02-19T12:46:47.511Z,1016.3
2023-02-19T12:48:03.697Z,1016.2
2023-02-19T12:49:19.897Z,1016.3
2023-02-19T12:50:36.084Z,1016.2
2023-02-19T12:51:52.259Z,1016.3
2023-02-19T12:53:08.073Z,1016.3
2023-02-19T12:54:24.642Z,1016.2
2023-02-19T12:55:40.833Z,1016.3
2023-02-19T12:56:56.027Z,1016.3
2023-02-19T12:58:12.223Z,1016.3
2023-02-19T12:59:28.406Z,1016.4
2023-02-19T13:00:44.215Z,1016.4
2023-02-19T13:01:59.435Z,1016.4
2023-02-19T13:03:15.002Z,1016.4
2023-02-19T13:04:31.193Z,1016.4
2023-02-19T13:05:46.402Z,1016.4
2023-02-19T13:07:01.619Z,1016.4
2023-02-19T13:08:17.800Z,1016.4
2023-02-19T13:09:33.979Z,1016.5
2023-02-19T13:10:49.799Z,1016.5
2023-02-19T13:12:06.366Z,1016.6
2023-02-19T13:13:22.550Z,1016.5
2023-02-19T13:14:38.730Z,1016.6
2023-02-19T13:15:54.552Z,1016.6
2023-02-19T13:17:11.114Z,1016.5
2023-02-19T13:18:27.291Z,1016.6
2023-02-19T13:19:43.490Z,1016.6
2023-02-19T13:20:59.679Z,1016.7
2023-02-19T13:22:15.851Z,1016.6
2023-02-19T13:23:31.064Z,1016.6
2023-02-19T13:24:47.252Z,1016.5
2023-02-19T13:26:03.446Z,1016.6
2023-02-19T13:27:19.617Z,1016.6
2023-02-19T13:28:35.814Z,1016.6
2023-02-19T13:29:52.004Z,1016.6
2023-02-19T13:31:08.184Z,1016.6
2023-02-19T13:32:23.027Z,1016.6
2023-02-19T13:33:38.614Z,1016.6
2023-02-19T13:34:54.792Z,1016.6
2023-02-19T13:36:10.012Z,1016.6
2023-02-19T13:37:25.203Z,1016.6
2023-02-19T13:38:41.391Z,1016.6
2023-02-19T13:39:57.578Z,1016.6
2023-02-19T13:41:13.389Z,1016.6
2023-02-19T13:42:29.952Z,1016.6
2023-02-19T13:43:46.149Z,1016.6
2023-02-19T13:45:01.949Z,1016.6
2023-02-19T13:46:18.519Z,1016.6
2023-02-19T13:47:34.716Z,1016.6
2023-02-19T13:48:50.892Z,1016.6
2023-02-19T13:50:07.093Z,1016.6
2023-02-19T13:51:23.268Z,1016.6
2023-02-19T13:52:39.465Z,1016.6
2023-02-19T13:53:54.266Z,1016.6
2023-02-19T13:55:10.869Z,1016.6
2023-02-19T13:56:26.642Z,1016.7
2023-02-19T13:57:42.824Z,1016.7
2023-02-19T13:58:59.412Z,1016.7
2023-02-19T14:00:15.594Z,1016.8
2023-02-19T14:01:31.399Z,1016.7
2023-02-19T14:02:46.611Z,1016.8
2023-02-19T14:04:02.207Z,1016.9
2023-02-19T14:05:18.397Z,1016.8
2023-02-19T14:06:33.220Z,1016.9
2023-02-19T14:07:48.817Z,1016.9
2023-02-19T14:09:04.596Z,1017
2023-02-19T14:10:21.191Z,1016.9
2023-02-19T14:11:37.377Z,1016.9
2023-02-19T14:12:53.559Z,1016.9
2023-02-19T14:14:09.736Z,1017
2023-02-19T14:15:25.938Z,1017
2023-02-19T14:16:41.717Z,1017
2023-02-19T14:17:58.305Z,1016.9
2023-02-19T14:19:14.103Z,1017.1
2023-02-19T14:20:30.684Z,1017
2023-02-19T14:21:46.876Z,1017.1
2023-02-19T14:23:02.653Z,1017.1
2023-02-19T14:24:18.257Z,1017.1
2023-02-19T14:25:34.451Z,1017.1
2023-02-19T14:26:50.632Z,1017.1
2023-02-19T14:28:06.821Z,1017.1
2023-02-19T14:29:23.015Z,1017.2
2023-02-19T14:30:39.206Z,1017.1
2023-02-19T14:31:54.991Z,1017.1
2023-02-19T14:33:10.596Z,1017.1
2023-02-19T14:34:25.811Z,1017
2023-02-19T14:35:41.601Z,1017
2023-02-19T14:36:57.770Z,1017.1
2023-02-19T14:38:13.383Z,1016.9
2023-02-19T14:39:28.596Z,1017.1
2023-02-19T14:40:44.778Z,1017.1
2023-02-19T14:42:00.963Z,1017
2023-02-19T14:43:17.152Z,1017.1
2023-02-19T14:44:33.352Z,1017.1
2023-02-19T14:45:49.524Z,1017
2023-02-19T14:47:05.311Z,1017
2023-02-19T14:48:21.497Z,1017
2023-02-19T14:49:38.102Z,1017.1
2023-02-19T14:50:54.274Z,1017.2
2023-02-19T14:52:10.471Z,1017.2
2023-02-19T14:53:26.664Z,1017
2023-02-19T14:54:42.854Z,1017.1
2023-02-19T14:55:57.887Z,1017.1
2023-02-19T14:57:14.000Z,1017.2
2023-02-19T14:58:30.419Z,1017.3
2023-02-19T14:59:46.619Z,1017.3
2023-02-19T15:01:02.638Z,1017.3
2023-02-19T15:02:18.995Z,1017.3
2023-02-19T15:03:35.164Z,1017.2
2023-02-19T15:04:50.233Z,1017.2
2023-02-19T15:06:05.596Z,1017.3
2023-02-19T15:07:20.659Z,1017.2
2023-02-19T15:08:36.009Z,1017.2
2023-02-19T15:09:52.032Z,1017.3
2023-02-19T15:11:08.215Z,1017.3
2023-02-19T15:12:24.575Z,1017.4
2023-02-19T15:13:40.600Z,1017.4
2023-02-19T15:14:56.788Z,1017.4
2023-02-19T15:16:13.128Z,1017.4
2023-02-19T15:17:29.312Z,1017.4
2023-02-19T15:18:45.509Z,1017.4
2023-02-19T15:20:01.712Z,1017.4
2023-02-19T15:21:17.890Z,1017.4
2023-02-19T15:22:34.061Z,1017.4
2023-02-19T15:23:50.101Z,1017.4
2023-02-19T15:25:05.309Z,1017.4
2023-02-19T15:26:21.488Z,1017.4
2023-02-19T15:27:37.669Z,1017.4
2023-02-19T15:28:54.019Z,1017.5
2023-02-19T15:30:10.217Z,1017.5
2023-02-19T15:31:26.396Z,1017.5
2023-02-19T15:32:42.581Z,1017.5
2023-02-19T15:33:57.800Z,1017.4
2023-02-19T15:35:13.013Z,1017.4
2023-02-19T15:36:29.192Z,1017.4
2023-02-19T15:37:45.379Z,1017.4
2023-02-19T15:39:01.586Z,1017.4
2023-02-19T15:40:17.763Z,1017.3
2023-02-19T15:41:33.783Z,1017.5
2023-02-19T15:42:50.149Z,1017.4
2023-02-19T15:44:06.332Z,1017.5
2023-02-19T15:45:22.531Z,1017.6
2023-02-19T15:46:38.703Z,1017.6
2023-02-19T15:47:54.736Z,1017.6
2023-02-19T15:49:10.931Z,1017.6
2023-02-19T15:50:27.268Z,1017.6
2023-02-19T15:51:42.317Z,1017.6
2023-02-19T15:52:58.665Z,1017.6
2023-02-19T15:54:14.856Z,1017.7
2023-02-19T15:55:31.044Z,1017.7
2023-02-19T15:56:47.071Z,1017.7